sensor_id;sensor_type;location;lat;lon;timestamp;P1;durP1;ratioP1;P2;durP2;ratioP2
74124;SDS011;62475;52.192;5.396;2022-09-12T00:00:28;34.83;;;21.00;;
74124;SDS011;62475;52.192;5.396;2022-09-12T00:02:56;39.25;;;22.75;;
74124;SDS011;62475;52.192;5.396;2022-09-12T00:05:21;28.10;;;20.20;;
74124;SDS011;62475;52.192;5.396;2022-09-12T00:07:47;35.45;;;21.55;;
74124;SDS011;62475;52.192;5.396;2022-09-12T00:10:12;34.63;;;21.55;;
74124;SDS011;62475;52.192;5.396;2022-09-12T00:12:37;38.47;;;24.95;;
74124;SDS011;62475;52.192;5.396;2022-09-12T00:15:03;36.92;;;23.27;;
74124;SDS011;62475;52.192;5.396;2022-09-12T00:17:29;35.65;;;21.48;;
74124;SDS011;62475;52.192;5.396;2022-09-12T00:19:54;37.07;;;22.23;;
74124;SDS011;62475;52.192;5.396;2022-09-12T00:22:20;35.95;;;23.00;;
74124;SDS011;62475;52.192;5.396;2022-09-12T00:24:45;35.15;;;21.88;;
74124;SDS011;62475;52.192;5.396;2022-09-12T00:27:10;37.33;;;22.75;;
74124;SDS011;62475;52.192;5.396;2022-09-12T00:29:36;36.33;;;22.20;;
74124;SDS011;62475;52.192;5.396;2022-09-12T00:32:01;39.47;;;23.13;;
74124;SDS011;62475;52.192;5.396;2022-09-12T00:34:26;37.58;;;22.00;;
74124;SDS011;62475;52.192;5.396;2022-09-12T00:36:52;37.77;;;22.90;;
74124;SDS011;62475;52.192;5.396;2022-09-12T00:39:17;37.15;;;22.58;;
74124;SDS011;62475;52.192;5.396;2022-09-12T00:41:43;38.38;;;23.33;;
74124;SDS011;62475;52.192;5.396;2022-09-12T00:51:39;37.22;;;21.58;;
74124;SDS011;62475;52.192;5.396;2022-09-12T00:54:13;40.15;;;22.60;;
74124;SDS011;62475;52.192;5.396;2022-09-12T00:56:43;34.10;;;21.30;;
74124;SDS011;62475;52.192;5.396;2022-09-12T00:59:16;33.63;;;19.58;;
74124;SDS011;62475;52.192;5.396;2022-09-12T01:01:44;34.83;;;21.25;;
74124;SDS011;62475;52.192;5.396;2022-09-12T01:04:13;37.85;;;21.05;;
74124;SDS011;62475;52.192;5.396;2022-09-12T01:06:41;37.78;;;22.08;;
74124;SDS011;62475;52.192;5.396;2022-09-12T01:09:08;37.95;;;23.05;;
74124;SDS011;62475;52.192;5.396;2022-09-12T01:11:39;42.78;;;22.10;;
74124;SDS011;62475;52.192;5.396;2022-09-12T01:14:05;41.10;;;24.02;;
74124;SDS011;62475;52.192;5.396;2022-09-12T01:16:33;41.03;;;22.85;;
74124;SDS011;62475;52.192;5.396;2022-09-12T01:21:31;39.20;;;23.13;;
74124;SDS011;62475;52.192;5.396;2022-09-12T01:24:32;38.80;;;23.10;;
74124;SDS011;62475;52.192;5.396;2022-09-12T01:27:12;36.08;;;21.40;;
74124;SDS011;62475;52.192;5.396;2022-09-12T01:30:05;34.22;;;20.05;;
74124;SDS011;62475;52.192;5.396;2022-09-12T01:43:36;28.90;;;18.05;;
74124;SDS011;62475;52.192;5.396;2022-09-12T01:49:31;31.13;;;18.45;;
74124;SDS011;62475;52.192;5.396;2022-09-12T01:55:00;31.00;;;17.85;;
74124;SDS011;62475;52.192;5.396;2022-09-12T01:57:35;33.50;;;19.65;;
74124;SDS011;62475;52.192;5.396;2022-09-12T02:00:06;36.70;;;19.15;;
74124;SDS011;62475;52.192;5.396;2022-09-12T02:02:36;33.67;;;20.00;;
74124;SDS011;62475;52.192;5.396;2022-09-12T02:05:10;30.50;;;19.00;;
74124;SDS011;62475;52.192;5.396;2022-09-12T02:07:43;37.17;;;18.88;;
74124;SDS011;62475;52.192;5.396;2022-09-12T02:10:14;37.03;;;21.15;;
74124;SDS011;62475;52.192;5.396;2022-09-12T02:12:45;31.23;;;18.42;;
74124;SDS011;62475;52.192;5.396;2022-09-12T02:15:14;27.67;;;18.15;;
74124;SDS011;62475;52.192;5.396;2022-09-12T02:17:42;35.80;;;21.63;;
74124;SDS011;62475;52.192;5.396;2022-09-12T02:20:22;40.60;;;21.02;;
74124;SDS011;62475;52.192;5.396;2022-09-12T02:22:51;31.73;;;19.13;;
74124;SDS011;62475;52.192;5.396;2022-09-12T02:25:20;39.10;;;21.38;;
74124;SDS011;62475;52.192;5.396;2022-09-12T02:27:54;40.00;;;22.67;;
74124;SDS011;62475;52.192;5.396;2022-09-12T02:30:25;37.30;;;22.38;;
74124;SDS011;62475;52.192;5.396;2022-09-12T02:33:00;43.47;;;21.92;;
74124;SDS011;62475;52.192;5.396;2022-09-12T02:35:52;36.92;;;21.20;;
74124;SDS011;62475;52.192;5.396;2022-09-12T02:38:36;42.30;;;23.25;;
74124;SDS011;62475;52.192;5.396;2022-09-12T02:41:08;41.53;;;22.38;;
74124;SDS011;62475;52.192;5.396;2022-09-12T02:43:33;36.55;;;22.25;;
74124;SDS011;62475;52.192;5.396;2022-09-12T02:46:01;39.72;;;22.58;;
74124;SDS011;62475;52.192;5.396;2022-09-12T02:48:29;44.42;;;22.60;;
74124;SDS011;62475;52.192;5.396;2022-09-12T02:50:58;39.85;;;22.48;;
74124;SDS011;62475;52.192;5.396;2022-09-12T02:53:25;42.65;;;23.88;;
74124;SDS011;62475;52.192;5.396;2022-09-12T02:55:51;42.95;;;25.58;;
74124;SDS011;62475;52.192;5.396;2022-09-12T02:58:17;38.20;;;21.95;;
74124;SDS011;62475;52.192;5.396;2022-09-12T03:00:49;46.15;;;22.70;;
74124;SDS011;62475;52.192;5.396;2022-09-12T03:03:20;43.10;;;22.77;;
74124;SDS011;62475;52.192;5.396;2022-09-12T03:05:55;43.97;;;22.92;;
74124;SDS011;62475;52.192;5.396;2022-09-12T03:13:32;45.28;;;24.75;;
74124;SDS011;62475;52.192;5.396;2022-09-12T03:19:24;38.63;;;23.48;;
74124;SDS011;62475;52.192;5.396;2022-09-12T03:24:46;40.45;;;22.00;;
74124;SDS011;62475;52.192;5.396;2022-09-12T03:27:20;39.08;;;22.58;;
74124;SDS011;62475;52.192;5.396;2022-09-12T03:29:58;43.53;;;24.42;;
74124;SDS011;62475;52.192;5.396;2022-09-12T03:32:40;42.40;;;22.92;;
74124;SDS011;62475;52.192;5.396;2022-09-12T03:35:08;47.92;;;24.80;;
74124;SDS011;62475;52.192;5.396;2022-09-12T03:37:34;50.00;;;25.58;;
74124;SDS011;62475;52.192;5.396;2022-09-12T03:39:59;47.80;;;23.83;;
74124;SDS011;62475;52.192;5.396;2022-09-12T03:42:24;42.45;;;23.60;;
74124;SDS011;62475;52.192;5.396;2022-09-12T03:44:50;41.15;;;23.02;;
74124;SDS011;62475;52.192;5.396;2022-09-12T03:47:15;44.67;;;24.83;;
74124;SDS011;62475;52.192;5.396;2022-09-12T03:49:40;38.17;;;23.00;;
74124;SDS011;62475;52.192;5.396;2022-09-12T03:52:06;40.35;;;22.80;;
74124;SDS011;62475;52.192;5.396;2022-09-12T03:54:31;44.28;;;23.15;;
74124;SDS011;62475;52.192;5.396;2022-09-12T03:56:57;43.42;;;23.00;;
74124;SDS011;62475;52.192;5.396;2022-09-12T03:59:22;47.10;;;24.17;;
74124;SDS011;62475;52.192;5.396;2022-09-12T04:01:47;54.73;;;27.23;;
74124;SDS011;62475;52.192;5.396;2022-09-12T04:04:13;51.08;;;24.48;;
74124;SDS011;62475;52.192;5.396;2022-09-12T04:06:38;48.10;;;25.40;;
74124;SDS011;62475;52.192;5.396;2022-09-12T04:09:03;53.63;;;25.73;;
74124;SDS011;62475;52.192;5.396;2022-09-12T04:11:29;50.50;;;25.52;;
74124;SDS011;62475;52.192;5.396;2022-09-12T04:13:56;48.78;;;24.77;;
74124;SDS011;62475;52.192;5.396;2022-09-12T04:16:21;52.20;;;25.10;;
74124;SDS011;62475;52.192;5.396;2022-09-12T04:18:46;48.05;;;24.05;;
74124;SDS011;62475;52.192;5.396;2022-09-12T04:21:13;41.65;;;23.75;;
74124;SDS011;62475;52.192;5.396;2022-09-12T04:23:41;48.03;;;23.85;;
74124;SDS011;62475;52.192;5.396;2022-09-12T04:26:07;46.45;;;25.77;;
74124;SDS011;62475;52.192;5.396;2022-09-12T04:28:33;48.90;;;26.00;;
74124;SDS011;62475;52.192;5.396;2022-09-12T04:31:03;54.97;;;27.10;;
74124;SDS011;62475;52.192;5.396;2022-09-12T04:33:31;44.08;;;24.75;;
74124;SDS011;62475;52.192;5.396;2022-09-12T04:36:07;49.50;;;24.65;;
74124;SDS011;62475;52.192;5.396;2022-09-12T04:38:40;54.42;;;27.70;;
74124;SDS011;62475;52.192;5.396;2022-09-12T04:41:10;49.63;;;25.73;;
74124;SDS011;62475;52.192;5.396;2022-09-12T04:43:37;49.70;;;26.23;;
74124;SDS011;62475;52.192;5.396;2022-09-12T04:46:09;53.92;;;27.35;;
74124;SDS011;62475;52.192;5.396;2022-09-12T04:48:35;52.30;;;25.23;;
74124;SDS011;62475;52.192;5.396;2022-09-12T04:53:41;49.83;;;24.98;;
74124;SDS011;62475;52.192;5.396;2022-09-12T04:56:08;50.28;;;25.77;;
74124;SDS011;62475;52.192;5.396;2022-09-12T04:58:35;47.45;;;24.63;;
74124;SDS011;62475;52.192;5.396;2022-09-12T05:01:09;45.10;;;22.85;;
74124;SDS011;62475;52.192;5.396;2022-09-12T05:03:35;47.25;;;24.38;;
74124;SDS011;62475;52.192;5.396;2022-09-12T05:06:05;48.88;;;25.10;;
74124;SDS011;62475;52.192;5.396;2022-09-12T05:08:32;50.20;;;24.77;;
74124;SDS011;62475;52.192;5.396;2022-09-12T05:11:03;43.53;;;24.15;;
74124;SDS011;62475;52.192;5.396;2022-09-12T05:13:31;52.97;;;24.52;;
74124;SDS011;62475;52.192;5.396;2022-09-12T05:15:57;54.78;;;26.63;;
74124;SDS011;62475;52.192;5.396;2022-09-12T05:18:24;53.35;;;27.23;;
74124;SDS011;62475;52.192;5.396;2022-09-12T05:20:50;48.55;;;24.52;;
74124;SDS011;62475;52.192;5.396;2022-09-12T05:23:16;49.17;;;24.70;;
74124;SDS011;62475;52.192;5.396;2022-09-12T05:25:51;54.63;;;26.65;;
74124;SDS011;62475;52.192;5.396;2022-09-12T05:28:18;51.78;;;24.77;;
74124;SDS011;62475;52.192;5.396;2022-09-12T05:30:44;50.95;;;24.60;;
74124;SDS011;62475;52.192;5.396;2022-09-12T05:33:09;48.10;;;24.98;;
74124;SDS011;62475;52.192;5.396;2022-09-12T05:35:35;44.47;;;24.65;;
74124;SDS011;62475;52.192;5.396;2022-09-12T05:38:02;51.45;;;25.45;;
74124;SDS011;62475;52.192;5.396;2022-09-12T05:40:28;49.60;;;25.17;;
74124;SDS011;62475;52.192;5.396;2022-09-12T05:42:57;50.40;;;25.88;;
74124;SDS011;62475;52.192;5.396;2022-09-12T05:45:22;48.60;;;25.33;;
74124;SDS011;62475;52.192;5.396;2022-09-12T05:47:47;48.13;;;24.00;;
74124;SDS011;62475;52.192;5.396;2022-09-12T05:50:13;46.50;;;24.52;;
74124;SDS011;62475;52.192;5.396;2022-09-12T05:52:39;52.60;;;26.90;;
74124;SDS011;62475;52.192;5.396;2022-09-12T05:55:04;54.75;;;26.08;;
74124;SDS011;62475;52.192;5.396;2022-09-12T05:57:30;58.67;;;26.60;;
74124;SDS011;62475;52.192;5.396;2022-09-12T05:59:55;53.75;;;27.45;;
74124;SDS011;62475;52.192;5.396;2022-09-12T06:02:20;57.30;;;27.87;;
74124;SDS011;62475;52.192;5.396;2022-09-12T06:04:46;61.58;;;27.23;;
74124;SDS011;62475;52.192;5.396;2022-09-12T06:07:11;58.40;;;26.08;;
74124;SDS011;62475;52.192;5.396;2022-09-12T06:09:37;59.28;;;27.52;;
74124;SDS011;62475;52.192;5.396;2022-09-12T06:12:02;56.80;;;26.52;;
74124;SDS011;62475;52.192;5.396;2022-09-12T06:14:28;63.72;;;28.08;;
74124;SDS011;62475;52.192;5.396;2022-09-12T06:16:53;54.00;;;26.00;;
74124;SDS011;62475;52.192;5.396;2022-09-12T06:19:19;62.05;;;29.35;;
74124;SDS011;62475;52.192;5.396;2022-09-12T06:21:47;55.13;;;27.35;;
74124;SDS011;62475;52.192;5.396;2022-09-12T06:24:14;64.47;;;28.55;;
74124;SDS011;62475;52.192;5.396;2022-09-12T06:26:40;64.88;;;29.17;;
74124;SDS011;62475;52.192;5.396;2022-09-12T06:29:08;58.50;;;27.80;;
74124;SDS011;62475;52.192;5.396;2022-09-12T06:31:36;63.42;;;29.27;;
74124;SDS011;62475;52.192;5.396;2022-09-12T06:34:07;59.28;;;27.65;;
74124;SDS011;62475;52.192;5.396;2022-09-12T06:36:38;57.67;;;26.50;;
74124;SDS011;62475;52.192;5.396;2022-09-12T06:39:07;50.90;;;26.42;;
74124;SDS011;62475;52.192;5.396;2022-09-12T06:41:37;59.95;;;28.05;;
74124;SDS011;62475;52.192;5.396;2022-09-12T06:44:03;55.53;;;26.40;;
74124;SDS011;62475;52.192;5.396;2022-09-12T06:46:30;53.70;;;26.40;;
74124;SDS011;62475;52.192;5.396;2022-09-12T06:48:55;62.47;;;26.63;;
74124;SDS011;62475;52.192;5.396;2022-09-12T06:51:21;53.53;;;26.98;;
74124;SDS011;62475;52.192;5.396;2022-09-12T06:53:47;61.15;;;28.00;;
74124;SDS011;62475;52.192;5.396;2022-09-12T06:58:46;51.97;;;24.55;;
74124;SDS011;62475;52.192;5.396;2022-09-12T07:03:42;50.67;;;25.10;;
74124;SDS011;62475;52.192;5.396;2022-09-12T07:06:13;53.30;;;25.27;;
74124;SDS011;62475;52.192;5.396;2022-09-12T07:08:40;53.33;;;23.02;;
74124;SDS011;62475;52.192;5.396;2022-09-12T07:11:09;48.75;;;24.67;;
74124;SDS011;62475;52.192;5.396;2022-09-12T07:13:39;48.35;;;23.73;;
74124;SDS011;62475;52.192;5.396;2022-09-12T07:16:06;47.47;;;24.55;;
74124;SDS011;62475;52.192;5.396;2022-09-12T07:18:32;47.45;;;23.88;;
74124;SDS011;62475;52.192;5.396;2022-09-12T07:20:59;46.92;;;23.17;;
74124;SDS011;62475;52.192;5.396;2022-09-12T07:23:25;44.92;;;22.83;;
74124;SDS011;62475;52.192;5.396;2022-09-12T07:25:55;47.67;;;23.65;;
74124;SDS011;62475;52.192;5.396;2022-09-12T07:28:22;46.47;;;23.58;;
74124;SDS011;62475;52.192;5.396;2022-09-12T07:30:49;47.80;;;23.30;;
74124;SDS011;62475;52.192;5.396;2022-09-12T07:33:17;44.58;;;23.33;;
74124;SDS011;62475;52.192;5.396;2022-09-12T07:35:43;46.00;;;21.65;;
74124;SDS011;62475;52.192;5.396;2022-09-12T07:38:08;48.10;;;23.23;;
74124;SDS011;62475;52.192;5.396;2022-09-12T07:40:33;42.20;;;22.53;;
74124;SDS011;62475;52.192;5.396;2022-09-12T07:42:58;38.72;;;19.92;;
74124;SDS011;62475;52.192;5.396;2022-09-12T07:45:24;40.60;;;21.83;;
74124;SDS011;62475;52.192;5.396;2022-09-12T07:47:52;43.25;;;21.40;;
74124;SDS011;62475;52.192;5.396;2022-09-12T07:50:18;40.97;;;21.80;;
74124;SDS011;62475;52.192;5.396;2022-09-12T07:52:43;46.78;;;22.83;;
74124;SDS011;62475;52.192;5.396;2022-09-12T07:55:08;39.67;;;21.00;;
74124;SDS011;62475;52.192;5.396;2022-09-12T07:57:34;36.67;;;20.23;;
74124;SDS011;62475;52.192;5.396;2022-09-12T07:59:59;37.03;;;20.25;;
74124;SDS011;62475;52.192;5.396;2022-09-12T08:02:24;38.33;;;21.73;;
74124;SDS011;62475;52.192;5.396;2022-09-12T08:04:50;39.83;;;21.97;;
74124;SDS011;62475;52.192;5.396;2022-09-12T08:07:16;39.60;;;21.45;;
74124;SDS011;62475;52.192;5.396;2022-09-12T08:09:43;40.70;;;20.98;;
74124;SDS011;62475;52.192;5.396;2022-09-12T08:12:08;39.92;;;22.02;;
74124;SDS011;62475;52.192;5.396;2022-09-12T08:14:35;34.53;;;19.50;;
74124;SDS011;62475;52.192;5.396;2022-09-12T08:17:00;35.35;;;19.80;;
74124;SDS011;62475;52.192;5.396;2022-09-12T08:19:26;37.60;;;20.42;;
74124;SDS011;62475;52.192;5.396;2022-09-12T08:21:51;39.13;;;19.52;;
74124;SDS011;62475;52.192;5.396;2022-09-12T08:24:16;33.17;;;18.70;;
74124;SDS011;62475;52.192;5.396;2022-09-12T08:26:41;34.97;;;20.10;;
74124;SDS011;62475;52.192;5.396;2022-09-12T08:29:07;36.65;;;19.33;;
74124;SDS011;62475;52.192;5.396;2022-09-12T08:31:32;33.97;;;20.05;;
74124;SDS011;62475;52.192;5.396;2022-09-12T08:34:00;35.78;;;18.77;;
74124;SDS011;62475;52.192;5.396;2022-09-12T08:36:26;32.05;;;18.38;;
74124;SDS011;62475;52.192;5.396;2022-09-12T08:38:54;34.22;;;19.85;;
74124;SDS011;62475;52.192;5.396;2022-09-12T08:41:31;31.35;;;17.90;;
74124;SDS011;62475;52.192;5.396;2022-09-12T08:47:08;32.50;;;18.17;;
74124;SDS011;62475;52.192;5.396;2022-09-12T08:57:52;30.90;;;16.70;;
74124;SDS011;62475;52.192;5.396;2022-09-12T09:00:18;29.88;;;16.23;;
74124;SDS011;62475;52.192;5.396;2022-09-12T09:02:53;27.98;;;15.70;;
74124;SDS011;62475;52.192;5.396;2022-09-12T09:08:06;24.25;;;15.23;;
74124;SDS011;62475;52.192;5.396;2022-09-12T09:10:50;26.42;;;16.52;;
74124;SDS011;62475;52.192;5.396;2022-09-12T09:16:37;23.30;;;13.93;;
74124;SDS011;62475;52.192;5.396;2022-09-12T09:19:07;23.15;;;13.45;;
74124;SDS011;62475;52.192;5.396;2022-09-12T09:21:58;24.60;;;15.30;;
74124;SDS011;62475;52.192;5.396;2022-09-12T09:24:32;21.77;;;13.13;;
74124;SDS011;62475;52.192;5.396;2022-09-12T09:27:04;23.70;;;13.77;;
74124;SDS011;62475;52.192;5.396;2022-09-12T09:29:38;22.90;;;13.85;;
74124;SDS011;62475;52.192;5.396;2022-09-12T09:32:17;22.35;;;14.25;;
74124;SDS011;62475;52.192;5.396;2022-09-12T09:34:45;24.65;;;13.60;;
74124;SDS011;62475;52.192;5.396;2022-09-12T09:40:26;18.85;;;11.52;;
74124;SDS011;62475;52.192;5.396;2022-09-12T09:43:05;19.70;;;13.05;;
74124;SDS011;62475;52.192;5.396;2022-09-12T09:45:48;20.73;;;13.70;;
74124;SDS011;62475;52.192;5.396;2022-09-12T09:48:26;25.98;;;15.07;;
74124;SDS011;62475;52.192;5.396;2022-09-12T09:50:56;19.52;;;12.60;;
74124;SDS011;62475;52.192;5.396;2022-09-12T09:53:39;24.40;;;13.60;;
74124;SDS011;62475;52.192;5.396;2022-09-12T09:56:25;19.75;;;11.35;;
74124;SDS011;62475;52.192;5.396;2022-09-12T09:59:06;17.98;;;10.98;;
74124;SDS011;62475;52.192;5.396;2022-09-12T10:04:38;16.77;;;10.27;;
74124;SDS011;62475;52.192;5.396;2022-09-12T10:07:05;19.90;;;11.68;;
74124;SDS011;62475;52.192;5.396;2022-09-12T10:09:41;16.38;;;10.50;;
74124;SDS011;62475;52.192;5.396;2022-09-12T10:12:39;15.32;;;9.93;;
74124;SDS011;62475;52.192;5.396;2022-09-12T10:15:02;18.92;;;11.23;;
74124;SDS011;62475;52.192;5.396;2022-09-12T10:17:41;16.48;;;8.55;;
74124;SDS011;62475;52.192;5.396;2022-09-12T10:23:40;12.90;;;9.77;;
74124;SDS011;62475;52.192;5.396;2022-09-12T10:25:52;12.95;;;9.48;;
74124;SDS011;62475;52.192;5.396;2022-09-12T10:28:22;13.60;;;8.00;;
74124;SDS011;62475;52.192;5.396;2022-09-12T10:30:54;17.33;;;9.38;;
74124;SDS011;62475;52.192;5.396;2022-09-12T10:33:20;12.05;;;7.53;;
74124;SDS011;62475;52.192;5.396;2022-09-12T10:35:50;11.55;;;7.88;;
74124;SDS011;62475;52.192;5.396;2022-09-12T10:38:24;11.98;;;8.90;;
74124;SDS011;62475;52.192;5.396;2022-09-12T10:40:56;14.07;;;8.15;;
74124;SDS011;62475;52.192;5.396;2022-09-12T10:43:34;15.43;;;8.35;;
74124;SDS011;62475;52.192;5.396;2022-09-12T10:48:42;10.50;;;6.97;;
74124;SDS011;62475;52.192;5.396;2022-09-12T10:51:45;11.10;;;7.63;;
74124;SDS011;62475;52.192;5.396;2022-09-12T10:54:04;9.10;;;6.55;;
74124;SDS011;62475;52.192;5.396;2022-09-12T10:56:34;13.60;;;8.32;;
74124;SDS011;62475;52.192;5.396;2022-09-12T10:59:24;12.45;;;7.60;;
74124;SDS011;62475;52.192;5.396;2022-09-12T11:02:14;13.98;;;8.85;;
74124;SDS011;62475;52.192;5.396;2022-09-12T11:04:58;12.57;;;7.88;;
74124;SDS011;62475;52.192;5.396;2022-09-12T11:07:45;13.05;;;8.05;;
74124;SDS011;62475;52.192;5.396;2022-09-12T11:10:22;12.82;;;8.82;;
74124;SDS011;62475;52.192;5.396;2022-09-12T11:29:58;8.68;;;5.50;;
74124;SDS011;62475;52.192;5.396;2022-09-12T11:40:51;6.80;;;4.32;;
74124;SDS011;62475;52.192;5.396;2022-09-12T11:51:26;7.78;;;4.97;;
74124;SDS011;62475;52.192;5.396;2022-09-12T11:54:02;7.00;;;4.15;;
74124;SDS011;62475;52.192;5.396;2022-09-12T11:56:36;6.60;;;3.72;;
74124;SDS011;62475;52.192;5.396;2022-09-12T11:59:14;5.55;;;3.70;;
74124;SDS011;62475;52.192;5.396;2022-09-12T12:01:56;8.20;;;4.57;;
74124;SDS011;62475;52.192;5.396;2022-09-12T12:04:24;4.82;;;3.47;;
74124;SDS011;62475;52.192;5.396;2022-09-12T12:07:08;6.68;;;3.80;;
74124;SDS011;62475;52.192;5.396;2022-09-12T12:09:35;4.75;;;3.20;;
74124;SDS011;62475;52.192;5.396;2022-09-12T12:12:10;5.97;;;3.58;;
74124;SDS011;62475;52.192;5.396;2022-09-12T12:14:42;6.65;;;3.50;;
74124;SDS011;62475;52.192;5.396;2022-09-12T12:17:12;4.35;;;3.60;;
74124;SDS011;62475;52.192;5.396;2022-09-12T12:19:39;5.60;;;3.60;;
74124;SDS011;62475;52.192;5.396;2022-09-12T12:25:01;3.70;;;3.03;;
74124;SDS011;62475;52.192;5.396;2022-09-12T12:27:55;3.75;;;3.28;;
74124;SDS011;62475;52.192;5.396;2022-09-12T12:37:59;4.15;;;3.25;;
74124;SDS011;62475;52.192;5.396;2022-09-12T12:40:26;4.90;;;3.08;;
74124;SDS011;62475;52.192;5.396;2022-09-12T12:42:57;4.18;;;2.88;;
74124;SDS011;62475;52.192;5.396;2022-09-12T12:48:00;5.20;;;3.37;;
74124;SDS011;62475;52.192;5.396;2022-09-12T12:50:33;4.95;;;3.17;;
74124;SDS011;62475;52.192;5.396;2022-09-12T12:53:02;4.50;;;2.83;;
74124;SDS011;62475;52.192;5.396;2022-09-12T12:55:51;4.90;;;3.28;;
74124;SDS011;62475;52.192;5.396;2022-09-12T12:58:27;5.35;;;2.83;;
74124;SDS011;62475;52.192;5.396;2022-09-12T13:01:13;4.10;;;3.30;;
74124;SDS011;62475;52.192;5.396;2022-09-12T13:03:45;7.75;;;4.07;;
74124;SDS011;62475;52.192;5.396;2022-09-12T13:09:04;3.90;;;2.80;;
74124;SDS011;62475;52.192;5.396;2022-09-12T13:11:36;4.70;;;3.03;;
74124;SDS011;62475;52.192;5.396;2022-09-12T13:14:05;3.92;;;2.97;;
74124;SDS011;62475;52.192;5.396;2022-09-12T13:16:34;4.75;;;3.30;;
74124;SDS011;62475;52.192;5.396;2022-09-12T13:19:05;3.50;;;2.72;;
74124;SDS011;62475;52.192;5.396;2022-09-12T13:21:37;5.35;;;3.13;;
74124;SDS011;62475;52.192;5.396;2022-09-12T13:24:12;5.72;;;3.20;;
74124;SDS011;62475;52.192;5.396;2022-09-12T13:26:41;4.95;;;3.80;;
74124;SDS011;62475;52.192;5.396;2022-09-12T13:29:18;3.95;;;2.97;;
74124;SDS011;62475;52.192;5.396;2022-09-12T13:31:46;4.78;;;2.80;;
74124;SDS011;62475;52.192;5.396;2022-09-12T13:34:17;3.17;;;2.85;;
74124;SDS011;62475;52.192;5.396;2022-09-12T13:39:45;4.53;;;2.95;;
74124;SDS011;62475;52.192;5.396;2022-09-12T13:42:37;3.40;;;3.10;;
74124;SDS011;62475;52.192;5.396;2022-09-12T13:45:06;3.97;;;2.90;;
74124;SDS011;62475;52.192;5.396;2022-09-12T13:47:38;5.22;;;3.30;;
74124;SDS011;62475;52.192;5.396;2022-09-12T13:50:07;4.20;;;2.72;;
74124;SDS011;62475;52.192;5.396;2022-09-12T13:52:52;4.50;;;3.20;;
74124;SDS011;62475;52.192;5.396;2022-09-12T13:55:33;5.05;;;2.67;;
74124;SDS011;62475;52.192;5.396;2022-09-12T13:58:05;3.42;;;2.85;;
74124;SDS011;62475;52.192;5.396;2022-09-12T14:06:25;5.18;;;3.08;;
74124;SDS011;62475;52.192;5.396;2022-09-12T14:08:51;4.30;;;2.88;;
74124;SDS011;62475;52.192;5.396;2022-09-12T14:11:23;5.13;;;2.95;;
74124;SDS011;62475;52.192;5.396;2022-09-12T14:13:51;4.63;;;3.03;;
74124;SDS011;62475;52.192;5.396;2022-09-12T14:16:16;5.32;;;3.25;;
74124;SDS011;62475;52.192;5.396;2022-09-12T14:18:45;3.80;;;2.50;;
74124;SDS011;62475;52.192;5.396;2022-09-12T14:21:54;4.85;;;2.90;;
74124;SDS011;62475;52.192;5.396;2022-09-12T14:24:01;3.83;;;3.10;;
74124;SDS011;62475;52.192;5.396;2022-09-12T14:26:29;3.92;;;2.95;;
74124;SDS011;62475;52.192;5.396;2022-09-12T14:29:00;4.97;;;3.45;;
74124;SDS011;62475;52.192;5.396;2022-09-12T14:31:29;3.58;;;3.00;;
74124;SDS011;62475;52.192;5.396;2022-09-12T14:34:10;6.07;;;2.92;;
74124;SDS011;62475;52.192;5.396;2022-09-12T14:36:41;3.30;;;2.75;;
74124;SDS011;62475;52.192;5.396;2022-09-12T14:42:12;6.70;;;3.15;;
74124;SDS011;62475;52.192;5.396;2022-09-12T14:44:42;4.05;;;3.08;;
74124;SDS011;62475;52.192;5.396;2022-09-12T14:47:21;5.53;;;3.15;;
74124;SDS011;62475;52.192;5.396;2022-09-12T14:49:49;5.53;;;3.47;;
74124;SDS011;62475;52.192;5.396;2022-09-12T14:54:55;4.22;;;2.80;;
74124;SDS011;62475;52.192;5.396;2022-09-12T14:57:35;3.92;;;2.75;;
74124;SDS011;62475;52.192;5.396;2022-09-12T15:02:38;4.07;;;2.67;;
74124;SDS011;62475;52.192;5.396;2022-09-12T15:07:38;4.30;;;2.80;;
74124;SDS011;62475;52.192;5.396;2022-09-12T15:10:16;4.07;;;2.70;;
74124;SDS011;62475;52.192;5.396;2022-09-12T15:15:29;3.80;;;2.40;;
74124;SDS011;62475;52.192;5.396;2022-09-12T15:17:57;4.32;;;2.85;;
74124;SDS011;62475;52.192;5.396;2022-09-12T15:20:22;4.93;;;2.88;;
74124;SDS011;62475;52.192;5.396;2022-09-12T15:22:48;3.30;;;2.63;;
74124;SDS011;62475;52.192;5.396;2022-09-12T15:25:15;4.07;;;3.00;;
74124;SDS011;62475;52.192;5.396;2022-09-12T15:27:41;4.57;;;2.90;;
74124;SDS011;62475;52.192;5.396;2022-09-12T15:30:09;4.40;;;2.80;;
74124;SDS011;62475;52.192;5.396;2022-09-12T15:32:37;3.45;;;2.65;;
74124;SDS011;62475;52.192;5.396;2022-09-12T15:35:25;4.22;;;2.78;;
74124;SDS011;62475;52.192;5.396;2022-09-12T15:37:50;5.65;;;2.75;;
74124;SDS011;62475;52.192;5.396;2022-09-12T15:40:17;4.30;;;2.80;;
74124;SDS011;62475;52.192;5.396;2022-09-12T15:42:42;3.42;;;2.63;;
74124;SDS011;62475;52.192;5.396;2022-09-12T15:45:12;3.17;;;2.65;;
74124;SDS011;62475;52.192;5.396;2022-09-12T15:47:43;6.00;;;2.65;;
74124;SDS011;62475;52.192;5.396;2022-09-12T15:50:09;4.55;;;2.50;;
74124;SDS011;62475;52.192;5.396;2022-09-12T15:52:35;3.95;;;2.53;;
74124;SDS011;62475;52.192;5.396;2022-09-12T15:55:01;4.80;;;2.45;;
74124;SDS011;62475;52.192;5.396;2022-09-12T15:57:27;4.15;;;2.40;;
74124;SDS011;62475;52.192;5.396;2022-09-12T15:59:53;4.03;;;2.42;;
74124;SDS011;62475;52.192;5.396;2022-09-12T16:02:18;3.78;;;2.35;;
74124;SDS011;62475;52.192;5.396;2022-09-12T16:04:44;4.28;;;2.55;;
74124;SDS011;62475;52.192;5.396;2022-09-12T16:07:11;6.95;;;2.65;;
74124;SDS011;62475;52.192;5.396;2022-09-12T16:09:37;4.10;;;2.83;;
74124;SDS011;62475;52.192;5.396;2022-09-12T16:12:03;3.15;;;2.38;;
74124;SDS011;62475;52.192;5.396;2022-09-12T16:14:28;3.80;;;2.15;;
74124;SDS011;62475;52.192;5.396;2022-09-12T16:16:53;5.40;;;2.70;;
74124;SDS011;62475;52.192;5.396;2022-09-12T16:19:21;3.65;;;2.60;;
74124;SDS011;62475;52.192;5.396;2022-09-12T16:21:47;3.42;;;2.05;;
74124;SDS011;62475;52.192;5.396;2022-09-12T16:24:14;5.05;;;2.55;;
74124;SDS011;62475;52.192;5.396;2022-09-12T16:26:43;2.80;;;2.25;;
74124;SDS011;62475;52.192;5.396;2022-09-12T16:29:09;3.63;;;2.13;;
74124;SDS011;62475;52.192;5.396;2022-09-12T16:31:36;5.75;;;2.78;;
74124;SDS011;62475;52.192;5.396;2022-09-12T16:34:03;5.50;;;2.25;;
74124;SDS011;62475;52.192;5.396;2022-09-12T16:36:28;4.40;;;2.55;;
74124;SDS011;62475;52.192;5.396;2022-09-12T16:38:53;4.15;;;2.28;;
74124;SDS011;62475;52.192;5.396;2022-09-12T16:41:21;3.42;;;2.20;;
74124;SDS011;62475;52.192;5.396;2022-09-12T16:43:49;5.20;;;2.60;;
74124;SDS011;62475;52.192;5.396;2022-09-12T16:46:15;2.90;;;2.05;;
74124;SDS011;62475;52.192;5.396;2022-09-12T16:48:46;3.58;;;1.88;;
74124;SDS011;62475;52.192;5.396;2022-09-12T16:51:21;3.92;;;2.10;;
74124;SDS011;62475;52.192;5.396;2022-09-12T16:53:48;4.72;;;2.28;;
74124;SDS011;62475;52.192;5.396;2022-09-12T16:56:13;4.57;;;2.28;;
74124;SDS011;62475;52.192;5.396;2022-09-12T16:58:39;2.72;;;2.13;;
74124;SDS011;62475;52.192;5.396;2022-09-12T17:01:06;2.15;;;1.95;;
74124;SDS011;62475;52.192;5.396;2022-09-12T17:03:33;3.85;;;2.20;;
74124;SDS011;62475;52.192;5.396;2022-09-12T17:06:03;2.92;;;2.42;;
74124;SDS011;62475;52.192;5.396;2022-09-12T17:08:34;2.85;;;2.03;;
74124;SDS011;62475;52.192;5.396;2022-09-12T17:11:03;3.10;;;1.90;;
74124;SDS011;62475;52.192;5.396;2022-09-12T17:13:31;9.05;;;4.20;;